Time;durP1;ratioP1;P1;durP2;ratioP2;P2;SDS_P1;SDS_P2;PMS_P1;PMS_P2;Temp;Humidity;BMP_temperature;BMP_pressure;BME280_temperature;BME280_humidity;BME280_pressure;Samples;Min_cycle;Max_cycle;Signal;HPM_P1;HPM_P2
2022/06/23 00:02:04;;;;;;;1.83;1.50;;;20.60;48.20;;;;;;4931894;29;20040;-50
2022/06/23 00:04:36;;;;;;;2.10;1.80;;;20.60;47.70;;;;;;4932943;29;20460;-46
2022/06/23 00:07:24;;;;;;;1.92;1.67;;;20.50;48.10;;;;;;4918274;29;20048;-48
2022/06/23 00:09:54;;;;;;;1.73;1.63;;;20.60;48.50;;;;;;4926977;29;20039;-46
2022/06/23 00:12:25;;;;;;;1.63;1.52;;;20.50;47.90;;;;;;4932171;29;20044;-49
2022/06/23 00:14:59;;;;;;;2.20;2.00;;;20.40;48.00;;;;;;4926114;29;20075;-47
2022/06/23 00:17:42;;;;;;;1.60;1.50;;;20.40;48.40;;;;;;4931915;29;20107;-46
2022/06/23 00:20:19;;;;;;;1.80;1.70;;;20.30;48.60;;;;;;4932798;29;20052;-47
2022/06/23 00:22:54;;;;;;;2.10;1.90;;;20.30;48.50;;;;;;4929358;29;20048;-48
2022/06/23 00:25:48;;;;;;;1.65;1.55;;;20.30;48.80;;;;;;4928178;29;20040;-49
2022/06/23 00:28:22;;;;;;;1.65;1.55;;;20.20;48.90;;;;;;4925008;29;20055;-44
2022/06/23 00:31:01;;;;;;;1.83;1.52;;;20.20;48.60;;;;;;4932942;29;20103;-44
2022/06/23 00:33:51;;;;;;;3.22;1.70;;;19.90;48.90;;;;;;4930653;29;20048;-46
2022/06/23 00:36:37;;;;;;;2.20;2.00;;;20.10;49.10;;;;;;4929078;29;20503;-45
2022/06/23 00:39:06;;;;;;;1.73;1.63;;;20.00;49.20;;;;;;4923910;29;20036;-45
2022/06/23 00:41:37;;;;;;;2.55;1.58;;;20.00;48.70;;;;;;4930218;29;20043;-45
2022/06/23 00:44:17;;;;;;;2.65;1.77;;;19.90;48.80;;;;;;4927227;29;20104;-49
2022/06/23 00:46:48;;;;;;;1.42;1.35;;;19.90;49.40;;;;;;4926717;29;20044;-49
2022/06/23 00:49:29;;;;;;;3.13;1.55;;;19.90;49.20;;;;;;4932005;29;20323;-46
2022/06/23 00:52:28;;;;;;;2.08;1.88;;;19.80;49.40;;;;;;4931412;29;20091;-45
2022/06/23 00:55:17;;;;;;;1.70;1.60;;;19.80;50.00;;;;;;4926557;29;20056;-46
2022/06/23 00:58:03;;;;;;;1.92;1.80;;;19.80;49.30;;;;;;4931009;29;20055;-45
2022/06/23 01:00:36;;;;;;;1.52;1.42;;;19.80;50.00;;;;;;4926203;29;20047;-47
2022/06/23 01:03:46;;;;;;;2.13;1.58;;;19.70;49.80;;;;;;4928751;29;20542;-45
2022/06/23 01:06:41;;;;;;;2.97;2.33;;;19.70;50.20;;;;;;4923853;29;20130;-44
2022/06/23 01:09:53;;;;;;;3.65;1.58;;;19.70;50.00;;;;;;4951858;29;20467;-47
2022/06/23 01:12:39;;;;;;;3.38;1.65;;;19.60;49.70;;;;;;4925301;29;20090;-46
2022/06/23 01:15:18;;;;;;;2.40;1.70;;;19.60;50.00;;;;;;4931838;29;20044;-45
2022/06/23 01:18:06;;;;;;;4.32;1.83;;;19.60;50.30;;;;;;4912991;29;20052;-44
2022/06/23 01:20:39;;;;;;;2.88;1.95;;;19.50;50.40;;;;;;4915652;29;20039;-45
2022/06/23 01:23:40;;;;;;;2.55;1.70;;;19.50;50.10;;;;;;4927491;29;20579;-44
2022/06/23 01:26:15;;;;;;;2.22;2.03;;;19.50;50.50;;;;;;4932087;29;20047;-43
2022/06/23 01:28:43;;;;;;;3.42;2.15;;;19.40;50.20;;;;;;4934967;29;20056;-45
2022/06/23 01:31:23;;;;;;;1.48;1.38;;;19.40;50.10;;;;;;4932752;29;20054;-44
2022/06/23 01:34:07;;;;;;;2.05;1.90;;;19.30;50.50;;;;;;4933560;29;20044;-45
2022/06/23 01:36:46;;;;;;;2.08;1.70;;;19.30;51.10;;;;;;4915326;29;20119;-47
2022/06/23 01:39:57;;;;;;;4.40;1.80;;;19.30;50.70;;;;;;4933020;29;20119;-44
2022/06/23 01:42:49;;;;;;;1.77;1.67;;;19.30;51.20;;;;;;4911661;29;20052;-46
2022/06/23 01:45:34;;;;;;;2.27;1.53;;;19.30;51.30;;;;;;4934954;29;20111;-45
2022/06/23 01:48:16;;;;;;;1.92;1.80;;;19.30;51.40;;;;;;4934821;29;20283;-46
2022/06/23 01:50:50;;;;;;;1.80;1.70;;;19.20;51.40;;;;;;4932184;29;20091;-48
2022/06/23 01:53:21;;;;;;;2.30;1.85;;;19.20;51.30;;;;;;4932305;29;20039;-45
2022/06/23 01:55:59;;;;;;;1.75;1.65;;;19.20;51.20;;;;;;4934079;29;20121;-45
2022/06/23 01:58:52;;;;;;;3.13;2.17;;;19.20;52.40;;;;;;4927104;29;20063;-45
2022/06/23 02:02:05;;;;;;;11.32;2.60;;;19.30;52.30;;;;;;4932887;29;20067;-46
2022/06/23 02:04:36;;;;;;;2.05;1.73;;;19.30;53.40;;;;;;4935004;29;20495;-46
2022/06/23 02:07:20;;;;;;;2.25;1.77;;;19.30;52.40;;;;;;4926551;29;20048;-46
2022/06/23 02:10:02;;;;;;;2.60;2.40;;;19.40;53.60;;;;;;4934802;29;20044;-48
2022/06/23 02:12:41;;;;;;;2.30;1.88;;;19.40;53.20;;;;;;4934170;29;20044;-46
2022/06/23 02:15:44;;;;;;;2.47;2.28;;;19.50;53.30;;;;;;4930440;29;20052;-46
2022/06/23 02:18:18;;;;;;;2.28;2.08;;;19.60;53.60;;;;;;4920739;29;20059;-45
2022/06/23 02:21:17;;;;;;;3.70;2.15;;;19.60;52.90;;;;;;4930484;29;20048;-46
2022/06/23 02:24:27;;;;;;;1.85;1.75;;;19.60;53.40;;;;;;4931170;29;20166;-45
2022/06/23 02:27:23;;;;;;;2.08;1.88;;;19.60;53.30;;;;;;4930453;29;20043;-45
2022/06/23 02:29:55;;;;;;;2.58;1.88;;;19.70;53.30;;;;;;4932662;29;20047;-46
2022/06/23 02:32:35;;;;;;;1.80;1.70;;;19.70;53.00;;;;;;4933694;29;20052;-44
2022/06/23 02:35:25;;;;;;;2.28;1.48;;;19.70;53.30;;;;;;4930295;29;20106;-45
2022/06/23 02:38:22;;;;;;;2.58;2.10;;;19.70;53.20;;;;;;4927159;29;20052;-44
2022/06/23 02:40:54;;;;;;;3.67;2.15;;;19.70;52.90;;;;;;4924837;29;20074;-46
2022/06/23 02:43:29;;;;;;;2.90;1.77;;;19.70;52.20;;;;;;4915465;29;20158;-45
2022/06/23 02:46:23;;;;;;;3.13;2.15;;;19.60;52.70;;;;;;4924959;29;20043;-44
2022/06/23 02:48:57;;;;;;;3.10;1.80;;;19.60;53.00;;;;;;4934700;29;20051;-46
2022/06/23 02:52:09;;;;;;;3.03;1.85;;;19.60;52.10;;;;;;4932806;29;20050;-49
2022/06/23 02:55:00;;;;;;;4.78;2.10;;;19.50;52.70;;;;;;4903802;29;20048;-46
2022/06/23 02:57:45;;;;;;;3.20;1.85;;;19.50;52.70;;;;;;4932818;29;20400;-46
2022/06/23 03:00:17;;;;;;;2.05;1.70;;;19.40;52.80;;;;;;4933513;29;20663;-45
2022/06/23 03:03:04;;;;;;;2.60;1.85;;;19.40;52.20;;;;;;4933433;29;20048;-45
2022/06/23 03:05:57;;;;;;;2.00;1.80;;;19.30;53.00;;;;;;4929731;29;20070;-46
2022/06/23 03:08:27;;;;;;;3.20;2.00;;;19.30;53.00;;;;;;4933520;29;20040;-46
2022/06/23 03:11:06;;;;;;;1.88;1.77;;;19.20;52.30;;;;;;4933208;29;20452;-44
2022/06/23 03:14:13;;;;;;;3.10;1.85;;;19.20;52.90;;;;;;4924146;29;20669;-46
2022/06/23 03:16:47;;;;;;;2.88;2.08;;;19.20;53.10;;;;;;4903091;29;20043;-45
2022/06/23 03:19:19;;;;;;;2.03;1.83;;;19.10;52.80;;;;;;4931303;29;20459;-46
2022/06/23 03:21:51;;;;;;;3.05;2.20;;;19.10;53.00;;;;;;4928581;29;20106;-47
2022/06/23 03:24:31;;;;;;;2.33;1.95;;;19.10;53.00;;;;;;4933947;29;20103;-45
2022/06/23 03:27:22;;;;;;;2.15;2.00;;;19.00;53.60;;;;;;4932818;29;20058;-46
2022/06/23 03:30:20;;;;;;;5.97;2.20;;;19.00;53.80;;;;;;4927455;29;20052;-45
2022/06/23 03:32:54;;;;;;;2.67;1.88;;;19.00;53.90;;;;;;4929857;29;20039;-46
2022/06/23 03:35:37;;;;;;;3.13;1.88;;;18.90;53.60;;;;;;4932685;29;20070;-45
2022/06/23 03:38:19;;;;;;;6.35;1.70;;;18.90;54.20;;;;;;4933588;29;20043;-47
2022/06/23 03:43:53;;;;;;;3.78;1.70;;;18.90;54.10;;;;;;4933427;29;20095;-46
2022/06/23 03:46:47;;;;;;;4.65;1.92;;;18.90;54.40;;;;;;4932043;29;20040;-46
2022/06/23 03:49:33;;;;;;;3.78;2.15;;;18.90;54.20;;;;;;4930178;29;20044;-47
2022/06/23 03:52:04;;;;;;;2.65;2.03;;;18.90;54.70;;;;;;4923545;29;20047;-48
2022/06/23 03:54:55;;;;;;;2.20;2.00;;;18.90;54.00;;;;;;4931339;29;20507;-47
2022/06/23 03:57:31;;;;;;;2.67;2.20;;;18.90;54.80;;;;;;4929596;29;20295;-46
2022/06/23 04:00:35;;;;;;;4.40;1.90;;;18.90;54.80;;;;;;4929614;29;20519;-47
2022/06/23 04:03:31;;;;;;;1.77;1.67;;;18.90;55.20;;;;;;4913102;29;20526;-46
2022/06/23 04:05:57;;;;;;;3.17;2.40;;;18.90;55.20;;;;;;4927979;29;20051;-48
2022/06/23 04:08:30;;;;;;;2.13;1.92;;;18.90;54.50;;;;;;4930327;29;20036;-46
2022/06/23 04:11:43;;;;;;;2.75;1.90;;;18.90;55.30;;;;;;4926434;29;20535;-52
2022/06/23 04:13:54;;;;;;;2.15;1.95;;;18.90;55.20;;;;;;4929372;29;20035;-52
2022/06/23 04:16:23;;;;;;;2.33;1.80;;;19.00;55.30;;;;;;4920428;29;20066;-49
2022/06/23 04:18:52;;;;;;;4.80;2.15;;;19.00;55.50;;;;;;4930410;29;20095;-52
2022/06/23 04:21:27;;;;;;;5.20;2.88;;;19.00;55.50;;;;;;4931006;29;20040;-50
2022/06/23 04:23:57;;;;;;;2.90;1.88;;;19.10;56.30;;;;;;4928996;29;20091;-45
2022/06/23 04:26:36;;;;;;;4.07;2.10;;;19.10;56.10;;;;;;4927989;29;20044;-49
2022/06/23 04:29:10;;;;;;;3.00;2.65;;;19.10;56.90;;;;;;4924530;29;20111;-49
2022/06/23 04:31:46;;;;;;;2.42;2.22;;;19.10;56.90;;;;;;4926293;29;20044;-51
2022/06/23 04:34:20;;;;;;;2.30;1.92;;;19.20;56.60;;;;;;4911411;29;20103;-48
2022/06/23 04:36:47;;;;;;;2.90;2.50;;;19.20;56.90;;;;;;4930357;29;20091;-50
2022/06/23 04:39:36;;;;;;;2.35;2.15;;;19.30;56.60;;;;;;4926662;29;20035;-48
2022/06/23 04:42:21;;;;;;;4.03;2.03;;;19.30;57.60;;;;;;4929368;29;20098;-49
2022/06/23 04:44:52;;;;;;;4.93;2.13;;;19.40;57.20;;;;;;4930210;29;20048;-50
2022/06/23 04:47:31;;;;;;;3.20;2.35;;;19.40;57.10;;;;;;4908006;29;20036;-49
2022/06/23 04:50:10;;;;;;;2.85;2.50;;;19.50;57.50;;;;;;4930805;29;20055;-47
2022/06/23 04:52:49;;;;;;;2.35;2.15;;;19.50;57.70;;;;;;4922313;29;20083;-49
2022/06/23 04:55:19;;;;;;;4.20;2.53;;;19.60;58.10;;;;;;4931459;29;20051;-51
2022/06/23 04:57:59;;;;;;;2.60;2.13;;;19.60;57.30;;;;;;4930672;29;20616;-51
2022/06/23 05:00:46;;;;;;;2.80;2.50;;;19.70;58.50;;;;;;4927914;29;20048;-51
2022/06/23 05:03:30;;;;;;;4.18;2.30;;;19.80;58.10;;;;;;4934525;29;20040;-52
2022/06/23 05:06:11;;;;;;;2.50;2.10;;;19.90;57.90;;;;;;4914913;29;20051;-46
2022/06/23 05:08:42;;;;;;;3.72;2.58;;;20.00;58.90;;;;;;4934629;29;20043;-49
2022/06/23 05:11:27;;;;;;;4.40;2.70;;;20.00;58.50;;;;;;4933621;29;20099;-51
2022/06/23 05:13:59;;;;;;;4.95;2.72;;;20.10;59.30;;;;;;4934625;29;20688;-46
2022/06/23 05:16:37;;;;;;;4.28;2.88;;;20.20;58.70;;;;;;4927341;29;20051;-52
2022/06/23 05:19:11;;;;;;;6.20;3.20;;;20.20;59.10;;;;;;4933440;29;20507;-46
2022/06/23 05:21:46;;;;;;;5.78;3.30;;;20.30;59.10;;;;;;4905583;29;20060;-47
2022/06/23 05:24:45;;;;;;;6.05;3.80;;;20.40;58.80;;;;;;4914687;29;20928;-47
2022/06/23 05:27:18;;;;;;;7.35;3.75;;;20.50;58.80;;;;;;4919816;29;20135;-50
2022/06/23 05:29:51;;;;;;;;;;;20.60;58.10;;;;;;4928069;29;20449;-46
2022/06/23 05:32:23;;;;;;;7.13;4.03;;;20.70;57.50;;;;;;4927436;29;19930;-49
2022/06/23 05:35:15;;;;;;;8.82;3.75;;;20.80;58.40;;;;;;4909844;29;20597;-51
2022/06/23 05:38:01;;;;;;;6.50;3.75;;;20.90;58.60;;;;;;4913444;29;20475;-48
2022/06/23 05:40:50;;;;;;;6.13;3.90;;;21.00;59.00;;;;;;4924860;29;20389;-53
2022/06/23 05:43:17;;;;;;;7.22;4.20;;;21.10;59.60;;;;;;4927591;29;21143;-47
2022/06/23 05:45:52;;;;;;;11.18;5.35;;;21.20;58.50;;;;;;4930607;28;20088;-50
2022/06/23 05:48:41;;;;;;;6.47;4.50;;;21.30;58.50;;;;;;4933085;29;20519;-51
2022/06/23 05:51:16;;;;;;;7.47;5.03;;;21.40;58.50;;;;;;4932957;29;20052;-46
2022/06/23 05:53:56;;;;;;;6.90;4.60;;;21.50;59.00;;;;;;4932950;29;20067;-49
2022/06/23 05:56:32;;;;;;;7.28;5.13;;;21.60;59.20;;;;;;4934246;29;20473;-48
2022/06/23 05:59:12;;;;;;;8.48;5.38;;;21.70;58.60;;;;;;4932666;29;20059;-52
2022/06/23 06:01:52;;;;;;;8.35;5.63;;;21.80;59.40;;;;;;4926493;29;20047;-50
2022/06/23 06:04:51;;;;;;;5.90;4.75;;;22.00;59.40;;;;;;4930391;29;20048;-49
2022/06/23 06:07:21;;;;;;;10.57;5.75;;;22.10;59.20;;;;;;4918910;29;20051;-50
2022/06/23 06:09:49;;;;;;;9.90;5.40;;;22.20;59.00;;;;;;4939806;29;20111;-47
2022/06/23 06:12:24;;;;;;;7.65;5.25;;;22.30;58.90;;;;;;4928115;29;20040;-49
2022/06/23 06:15:20;;;;;;;6.78;5.82;;;22.50;59.40;;;;;;4933437;29;20048;-48
2022/06/23 06:17:49;;;;;;;5.57;4.95;;;22.60;59.90;;;;;;4924007;29;20069;-50
2022/06/23 06:20:20;;;;;;;7.60;5.68;;;22.70;58.70;;;;;;4931048;29;20448;-47
2022/06/23 06:23:02;;;;;;;6.47;4.53;;;22.80;58.80;;;;;;4927842;29;20114;-51
2022/06/23 06:25:36;;;;;;;11.52;5.88;;;22.90;59.10;;;;;;4924855;29;20095;-50
2022/06/23 06:28:17;;;;;;;6.13;5.35;;;23.00;58.80;;;;;;4933799;29;20048;-48
2022/06/23 06:31:11;;;;;;;9.30;5.20;;;23.10;58.90;;;;;;4919904;29;20500;-48
2022/06/23 06:34:07;;;;;;;5.88;4.75;;;23.20;58.60;;;;;;4926261;29;20707;-46
2022/06/23 06:36:36;;;;;;;6.07;4.65;;;23.30;58.60;;;;;;4933110;29;20155;-50
2022/06/23 06:39:17;;;;;;;6.95;4.75;;;23.40;58.00;;;;;;4929641;29;20385;-53
2022/06/23 06:41:50;;;;;;;7.88;5.53;;;23.50;58.70;;;;;;4924520;29;20820;-51
2022/06/23 06:44:18;;;;;;;5.82;4.50;;;23.60;58.50;;;;;;4931072;29;20403;-47
2022/06/23 06:46:46;;;;;;;7.10;4.40;;;23.60;58.00;;;;;;4933664;29;20047;-47
2022/06/23 06:49:19;;;;;;;7.82;4.07;;;23.70;58.20;;;;;;4914420;29;20060;-50
2022/06/23 06:51:49;;;;;;;6.40;4.05;;;23.80;58.20;;;;;;4929651;29;20047;-47
2022/06/23 06:54:28;;;;;;;5.20;4.22;;;23.90;57.70;;;;;;4926252;29;20054;-50
2022/06/23 06:56:59;;;;;;;7.32;4.55;;;24.00;58.20;;;;;;4951908;29;20105;-47
2022/06/23 06:59:52;;;;;;;5.80;4.68;;;24.10;57.70;;;;;;4931886;29;20460;-49
2022/06/23 07:02:26;;;;;;;6.38;4.18;;;24.20;58.40;;;;;;4933299;29;20566;-46
2022/06/23 07:05:03;;;;;;;7.22;4.75;;;24.10;57.70;;;;;;4933449;29;20075;-47
2022/06/23 07:07:37;;;;;;;8.50;4.15;;;24.40;58.10;;;;;;4929978;29;20110;-49
2022/06/23 07:10:17;;;;;;;9.48;4.30;;;24.50;57.60;;;;;;4930432;29;20119;-46
2022/06/23 07:12:56;;;;;;;8.23;3.90;;;24.60;58.00;;;;;;4931059;29;20039;-48
2022/06/23 07:15:40;;;;;;;5.18;3.45;;;24.60;57.60;;;;;;4928525;29;20391;-53
2022/06/23 07:18:28;;;;;;;5.22;3.97;;;24.70;57.00;;;;;;4927776;29;20043;-49
2022/06/23 07:21:18;;;;;;;8.85;3.63;;;24.80;57.30;;;;;;4931651;29;20048;-50
2022/06/23 07:24:02;;;;;;;7.38;4.10;;;24.90;57.00;;;;;;4931690;29;20051;-53
2022/06/23 07:26:42;;;;;;;6.93;3.65;;;25.00;56.80;;;;;;4924945;29;20103;-49
2022/06/23 07:29:15;;;;;;;;;;;25.00;56.80;;;;;;4932264;29;20068;-50
2022/06/23 07:31:54;;;;;;;5.78;3.13;;;25.10;55.70;;;;;;4931853;29;19923;-48
2022/06/23 07:34:24;;;;;;;4.65;3.60;;;25.20;56.20;;;;;;4927355;29;20329;-47
2022/06/23 07:37:00;;;;;;;5.10;3.70;;;25.30;56.20;;;;;;4927581;29;20062;-50
2022/06/23 07:39:38;;;;;;;3.97;3.08;;;25.30;56.00;;;;;;4939977;29;20043;-50
2022/06/23 07:42:18;;;;;;;5.43;3.47;;;25.40;56.10;;;;;;4933137;29;20059;-50
2022/06/23 07:44:54;;;;;;;6.68;3.63;;;25.50;56.00;;;;;;4933031;29;20136;-51
2022/06/23 07:47:22;;;;;;;5.55;3.20;;;25.60;55.60;;;;;;4927803;29;20070;-52
2022/06/23 07:49:49;;;;;;;5.65;3.45;;;25.70;55.00;;;;;;4933612;29;20071;-48
2022/06/23 07:52:18;;;;;;;5.53;3.45;;;25.70;55.20;;;;;;4933449;29;20444;-48
2022/06/23 07:54:49;;;;;;;7.32;4.05;;;25.80;54.90;;;;;;4923072;29;20056;-50
2022/06/23 07:57:16;;;;;;;8.18;4.20;;;25.80;55.00;;;;;;4924946;29;20056;-53
2022/06/23 07:59:58;;;;;;;8.35;3.50;;;25.90;55.00;;;;;;4933312;29;20410;-51
2022/06/23 08:02:41;;;;;;;7.30;2.83;;;26.00;54.80;;;;;;4931752;29;20044;-50
2022/06/23 08:05:22;;;;;;;6.80;2.90;;;26.10;54.50;;;;;;4926915;29;20047;-47
2022/06/23 08:07:49;;;;;;;5.20;3.25;;;26.20;54.30;;;;;;4926425;29;20040;-48
2022/06/23 08:10:21;;;;;;;10.23;2.95;;;26.30;53.90;;;;;;4930702;29;20413;-52
2022/06/23 08:13:01;;;;;;;5.13;3.40;;;26.40;53.70;;;;;;4934022;29;20039;-48
2022/06/23 08:18:46;;;;;;;7.03;3.05;;;26.50;53.20;;;;;;4925614;29;20447;-47
2022/06/23 08:21:20;;;;;;;5.53;2.60;;;26.60;52.60;;;;;;4934068;29;20514;-52
2022/06/23 08:24:06;;;;;;;7.97;3.40;;;26.70;52.40;;;;;;4928377;29;20045;-50
2022/06/23 08:26:36;;;;;;;7.53;3.10;;;26.80;52.70;;;;;;4931469;29;20567;-48
2022/06/23 08:29:07;;;;;;;4.38;2.28;;;26.90;52.30;;;;;;4932399;29;20071;-50
2022/06/23 08:31:34;;;;;;;9.02;3.28;;;26.90;52.20;;;;;;4925413;29;20046;-52
2022/06/23 08:34:21;;;;;;;5.53;3.10;;;27.00;52.30;;;;;;4928127;29;20044;-47
2022/06/23 08:36:51;;;;;;;5.93;2.92;;;27.10;51.90;;;;;;4935149;29;20048;-47
2022/06/23 08:39:26;;;;;;;9.00;3.03;;;27.10;52.10;;;;;;4927710;29;20048;-49
2022/06/23 08:42:14;;;;;;;5.00;3.10;;;27.20;52.20;;;;;;4926734;29;20043;-49
2022/06/23 08:45:01;;;;;;;5.35;2.65;;;27.30;51.40;;;;;;4930926;29;20063;-53
2022/06/23 08:47:40;;;;;;;8.80;3.13;;;27.40;51.50;;;;;;4927714;29;20496;-47
2022/06/23 08:50:21;;;;;;;8.63;3.28;;;27.40;51.30;;;;;;4936255;29;20043;-49
2022/06/23 08:52:52;;;;;;;7.07;3.03;;;27.50;50.70;;;;;;4932565;29;20663;-49
2022/06/23 08:55:38;;;;;;;6.72;2.55;;;27.60;50.60;;;;;;4934327;29;20043;-47
2022/06/23 08:58:44;;;;;;;5.80;2.70;;;27.60;50.60;;;;;;4935773;29;20058;-48
2022/06/23 09:01:17;;;;;;;8.18;3.50;;;27.80;50.50;;;;;;4899190;29;20123;-47
2022/06/23 09:03:52;;;;;;;3.78;2.78;;;27.80;50.40;;;;;;4923197;29;20058;-47
2022/06/23 09:06:52;;;;;;;4.43;2.88;;;27.90;50.50;;;;;;4936097;29;20405;-47
2022/06/23 09:09:53;;;;;;;9.88;3.10;;;28.00;50.20;;;;;;4925993;29;20040;-50
2022/06/23 09:12:44;;;;;;;13.00;3.65;;;28.10;50.30;;;;;;4941035;29;20213;-51
2022/06/23 09:15:39;;;;;;;5.78;3.58;;;28.20;50.40;;;;;;4935695;29;20051;-49
2022/06/23 09:18:27;;;;;;;7.13;2.80;;;28.20;50.80;;;;;;4935473;29;20053;-48
2022/06/23 09:21:25;;;;;;;5.68;3.75;;;28.30;50.50;;;;;;4932792;29;20040;-50
2022/06/23 09:24:30;;;;;;;4.03;2.75;;;28.40;50.50;;;;;;4936615;29;20072;-47
2022/06/23 09:27:14;;;;;;;8.80;3.15;;;28.40;50.50;;;;;;4930915;29;20103;-48
2022/06/23 09:29:55;;;;;;;8.85;3.95;;;28.50;49.80;;;;;;4931269;29;20040;-49
2022/06/23 09:32:24;;;;;;;6.47;3.20;;;28.60;50.10;;;;;;4935627;29;20135;-51
2022/06/23 09:35:12;;;;;;;5.00;2.88;;;28.60;50.20;;;;;;4932685;29;20043;-49
2022/06/23 09:37:58;;;;;;;8.80;3.17;;;28.60;49.80;;;;;;4928219;29;20039;-48
2022/06/23 09:40:57;;;;;;;7.40;3.15;;;28.70;50.20;;;;;;4919491;29;20063;-49
2022/06/23 09:44:01;;;;;;;7.10;3.33;;;28.80;49.60;;;;;;4927584;29;20143;-53
2022/06/23 09:47:06;;;;;;;7.32;3.75;;;28.80;49.10;;;;;;4934561;29;20106;-48
2022/06/23 09:50:02;;;;;;;5.00;3.22;;;28.90;49.80;;;;;;4934531;29;20052;-48
2022/06/23 09:52:43;;;;;;;6.70;3.28;;;29.00;49.60;;;;;;4935197;29;20044;-49
2022/06/23 09:55:39;;;;;;;7.53;2.78;;;29.20;49.80;;;;;;4919881;29;20044;-50
2022/06/23 09:58:24;;;;;;;8.80;3.95;;;29.30;49.20;;;;;;4926915;29;20055;-49
2022/06/23 10:01:05;;;;;;;5.82;2.90;;;29.50;48.90;;;;;;4917678;29;20059;-50
2022/06/23 10:04:14;;;;;;;4.32;2.88;;;29.60;49.00;;;;;;4918934;29;20043;-53
2022/06/23 10:06:41;;;;;;;5.57;2.80;;;29.80;48.60;;;;;;4920843;29;20060;-51
2022/06/23 10:09:26;;;;;;;7.18;3.28;;;30.00;48.10;;;;;;4926338;29;20055;-52
2022/06/23 10:11:55;;;;;;;4.22;2.45;;;30.10;46.60;;;;;;4927755;29;20052;-52
2022/06/23 10:14:47;;;;;;;3.25;2.58;;;30.20;46.60;;;;;;4928311;29;20535;-50
2022/06/23 10:17:30;;;;;;;4.07;2.70;;;30.40;46.10;;;;;;4938232;29;20059;-51
2022/06/23 10:20:11;;;;;;;3.83;2.88;;;30.50;45.20;;;;;;4933349;29;20066;-50
2022/06/23 10:22:51;;;;;;;7.40;3.15;;;30.60;45.70;;;;;;4914530;29;20043;-51
2022/06/23 10:25:39;;;;;;;8.43;2.75;;;30.60;45.90;;;;;;4921264;29;20067;-53
2022/06/23 10:28:33;;;;;;;10.38;3.30;;;30.70;45.70;;;;;;4930007;29;20040;-53
2022/06/23 10:31:24;;;;;;;6.80;3.10;;;30.80;46.20;;;;;;4932415;29;20476;-50
2022/06/23 10:34:18;;;;;;;5.63;3.15;;;30.90;45.50;;;;;;4934014;29;20079;-50
2022/06/23 10:37:13;;;;;;;8.13;3.35;;;31.10;45.20;;;;;;4924070;29;20051;-53
2022/06/23 10:40:02;;;;;;;9.05;3.05;;;31.20;45.30;;;;;;4919153;29;20039;-51
2022/06/23 10:43:14;;;;;;;5.60;2.70;;;31.40;45.00;;;;;;4921782;29;20081;-55
2022/06/23 10:45:50;;;;;;;7.00;3.08;;;31.50;45.40;;;;;;4929724;29;20032;-52
2022/06/23 10:48:48;;;;;;;6.20;3.30;;;31.60;44.80;;;;;;4934196;29;20559;-54
2022/06/23 10:51:53;;;;;;;4.65;3.45;;;31.80;44.60;;;;;;4920587;29;20119;-55
2022/06/23 10:54:44;;;;;;;6.15;3.00;;;31.90;44.20;;;;;;4918848;29;20500;-52
2022/06/23 10:57:22;;;;;;;8.60;2.83;;;32.10;44.10;;;;;;4931288;29;20121;-50
2022/06/23 11:00:04;;;;;;;6.25;3.25;;;32.20;43.70;;;;;;4911743;29;20075;-52
2022/06/23 11:02:49;;;;;;;6.00;2.90;;;32.20;43.10;;;;;;4927891;29;20099;-50
2022/06/23 11:05:34;;;;;;;5.43;3.45;;;32.30;42.70;;;;;;4932824;29;20111;-53
2022/06/23 11:08:15;;;;;;;5.55;3.83;;;32.30;42.80;;;;;;4932503;29;20040;-53
2022/06/23 11:10:45;;;;;;;8.70;3.15;;;32.30;42.90;;;;;;4930384;29;20050;-50
2022/06/23 11:13:55;;;;;;;4.80;2.90;;;32.30;43.20;;;;;;4928741;29;20562;-54
2022/06/23 11:16:52;;;;;;;6.18;3.05;;;32.30;43.20;;;;;;4932316;29;20083;-52
2022/06/23 11:19:34;;;;;;;4.93;3.33;;;32.30;42.90;;;;;;4927485;29;20072;-53
2022/06/23 11:22:09;;;;;;;4.77;2.80;;;32.30;42.90;;;;;;4929017;29;20623;-51
2022/06/23 11:25:06;;;;;;;10.07;2.72;;;32.30;43.00;;;;;;4925657;29;20810;-54
2022/06/23 11:28:05;;;;;;;4.72;2.88;;;32.40;43.50;;;;;;4932537;29;20067;-50
2022/06/23 11:30:49;;;;;;;5.55;3.22;;;32.40;42.50;;;;;;4928938;29;20098;-53
2022/06/23 11:33:54;;;;;;;6.35;2.70;;;32.40;42.90;;;;;;4931107;29;20039;-51
2022/06/23 11:36:27;;;;;;;4.72;3.50;;;32.50;43.00;;;;;;4923926;29;20054;-50
2022/06/23 11:39:18;;;;;;;3.50;2.70;;;32.50;42.10;;;;;;4929981;29;20079;-53
2022/06/23 11:41:45;;;;;;;7.93;3.60;;;32.50;41.80;;;;;;4931203;29;20051;-55
2022/06/23 11:44:36;;;;;;;5.47;3.25;;;32.50;41.60;;;;;;4931213;29;20091;-54
2022/06/23 11:47:22;;;;;;;6.55;2.88;;;32.50;42.00;;;;;;4926393;29;20043;-50
2022/06/23 11:50:07;;;;;;;5.88;2.92;;;32.50;41.90;;;;;;4932429;29;20047;-52
2022/06/23 11:52:58;;;;;;;3.97;3.13;;;32.60;42.20;;;;;;4931250;29;20051;-53
2022/06/23 11:55:36;;;;;;;3.30;2.40;;;32.60;42.00;;;;;;4928103;29;20047;-51
2022/06/23 11:58:24;;;;;;;6.38;3.25;;;32.60;42.10;;;;;;4929200;29;20157;-53
2022/06/23 12:01:15;;;;;;;5.22;2.83;;;32.70;42.00;;;;;;4931317;29;20111;-55
2022/06/23 12:03:53;;;;;;;4.05;3.30;;;32.70;42.80;;;;;;4927473;29;20047;-53
2022/06/23 12:06:26;;;;;;;6.43;3.40;;;32.80;43.00;;;;;;4931463;29;20480;-53
2022/06/23 12:09:00;;;;;;;6.10;2.85;;;32.90;43.30;;;;;;4930240;29;20039;-52
2022/06/23 12:11:31;;;;;;;8.32;3.42;;;33.00;42.00;;;;;;4927784;29;20044;-53
2022/06/23 12:13:59;;;;;;;4.63;2.83;;;33.20;43.10;;;;;;4925269;29;20047;-53
2022/06/23 12:16:26;;;;;;;4.53;2.72;;;33.40;43.00;;;;;;4932143;29;20095;-52
2022/06/23 12:18:58;;;;;;;6.72;3.47;;;33.60;42.20;;;;;;4929044;29;20051;-50
2022/06/23 12:21:37;;;;;;;3.85;2.47;;;33.70;41.50;;;;;;4931357;29;20043;-53
2022/06/23 12:24:27;;;;;;;6.93;3.30;;;33.80;40.80;;;;;;4932365;29;20567;-54
2022/06/23 12:27:16;;;;;;;8.32;3.22;;;34.00;40.80;;;;;;4928707;29;20110;-53
2022/06/23 12:30:00;;;;;;;8.15;2.90;;;34.00;40.50;;;;;;4931087;29;20444;-50
2022/06/23 12:32:50;;;;;;;6.90;3.60;;;34.10;40.10;;;;;;4931048;29;20044;-51
2022/06/23 12:35:36;;;;;;;4.38;2.90;;;34.10;39.90;;;;;;4927103;29;20040;-52
2022/06/23 12:38:31;;;;;;;8.27;2.78;;;34.10;40.00;;;;;;4928743;29;20052;-54
2022/06/23 12:41:06;;;;;;;7.82;3.03;;;34.20;40.60;;;;;;4928913;29;20044;-53
2022/06/23 12:43:45;;;;;;;4.00;2.50;;;34.30;40.00;;;;;;4930291;29;20570;-54
2022/06/23 12:46:34;;;;;;;5.75;2.55;;;34.40;39.90;;;;;;4920500;29;20075;-53
2022/06/23 12:49:33;;;;;;;15.40;3.00;;;34.50;39.90;;;;;;4926471;29;20036;-53
2022/06/23 12:52:03;;;;;;;4.82;2.80;;;34.60;39.70;;;;;;4934107;29;20047;-54
2022/06/23 12:54:51;;;;;;;7.65;3.38;;;34.70;40.20;;;;;;4928736;29;20415;-52
2022/06/23 12:57:39;;;;;;;6.43;3.00;;;34.70;39.30;;;;;;4920539;29;20044;-50
2022/06/23 13:00:09;;;;;;;10.40;3.33;;;34.80;39.40;;;;;;4931475;29;20091;-50
2022/06/23 13:02:43;;;;;;;7.53;3.00;;;34.80;39.00;;;;;;4931242;29;20047;-55
2022/06/23 13:05:24;;;;;;;;;;;34.90;39.00;;;;;;4925924;29;20499;-52
2022/06/23 13:08:16;;;;;;;5.38;2.53;;;34.90;39.50;;;;;;4925645;29;20566;-53
2022/06/23 13:10:56;;;;;;;6.22;2.78;;;34.90;39.20;;;;;;4925481;29;20059;-53
2022/06/23 13:13:32;;;;;;;3.97;2.35;;;34.90;38.50;;;;;;4925934;29;20044;-53
2022/06/23 13:16:26;;;;;;;5.50;2.38;;;34.90;37.90;;;;;;4924622;29;20051;-54
2022/06/23 13:19:06;;;;;;;6.28;2.70;;;34.90;37.70;;;;;;4926475;29;20228;-51
2022/06/23 13:21:36;;;;;;;5.40;2.45;;;34.90;38.40;;;;;;4932040;29;20051;-55
2022/06/23 13:24:19;;;;;;;5.82;2.40;;;34.90;37.90;;;;;;4931091;29;20731;-50
2022/06/23 13:26:57;;;;;;;6.30;2.63;;;35.10;38.20;;;;;;4930175;29;20043;-52
2022/06/23 13:29:55;;;;;;;5.43;1.92;;;35.30;38.00;;;;;;4935656;29;20035;-54
2022/06/23 13:32:37;;;;;;;6.88;3.00;;;35.50;37.40;;;;;;4927459;29;20044;-52
2022/06/23 13:35:22;;;;;;;5.30;2.03;;;35.90;37.50;;;;;;4923954;29;20470;-54
2022/06/23 13:37:56;;;;;;;8.57;3.13;;;36.40;36.70;;;;;;4928702;29;20039;-52
2022/06/23 13:40:35;;;;;;;8.43;2.80;;;36.90;36.80;;;;;;4942857;29;20044;-53
2022/06/23 13:43:12;;;;;;;5.43;2.90;;;37.40;35.90;;;;;;4925257;29;20644;-54
2022/06/23 13:45:50;;;;;;;6.05;2.65;;;37.70;35.20;;;;;;4918678;29;20111;-54
2022/06/23 13:48:31;;;;;;;6.25;2.95;;;37.90;34.60;;;;;;4935132;29;20407;-55
2022/06/23 13:51:11;;;;;;;5.63;2.38;;;38.10;34.40;;;;;;4929591;29;20039;-55
2022/06/23 13:54:00;;;;;;;5.93;2.70;;;38.20;34.30;;;;;;4933898;29;20044;-55
2022/06/23 13:56:39;;;;;;;4.70;2.47;;;38.20;33.40;;;;;;4934725;29;20051;-52
2022/06/23 13:59:18;;;;;;;4.60;2.45;;;38.20;33.70;;;;;;4928709;29;20040;-53
2022/06/23 14:02:14;;;;;;;4.68;2.63;;;38.10;33.70;;;;;;4929093;29;20055;-53
2022/06/23 14:04:58;;;;;;;7.97;2.65;;;38.00;33.70;;;;;;4932307;29;20044;-55
2022/06/23 14:07:35;;;;;;;4.75;2.50;;;37.80;33.50;;;;;;4929512;29;20401;-53
2022/06/23 14:10:08;;;;;;;7.03;2.70;;;37.50;34.40;;;;;;4926996;29;20456;-54
2022/06/23 14:12:56;;;;;;;6.88;2.90;;;37.30;33.90;;;;;;4915899;29;20036;-51